createdAt,value
2022-12-25T00:00:24.146Z,12.70
2022-12-25T00:00:56.396Z,15.82
2022-12-25T00:01:28.351Z,13.55
2022-12-25T00:02:00.374Z,13.05
2022-12-25T00:02:32.604Z,14.43
2022-12-25T00:03:04.725Z,12.20
2022-12-25T00:03:37.333Z,10.38
2022-12-25T00:04:09.395Z,14.87
2022-12-25T00:04:41.841Z,12.70
2022-12-25T00:05:13.691Z,12.65
2022-12-25T00:05:45.554Z,15.48
2022-12-25T00:06:18.376Z,12.63
2022-12-25T00:06:50.326Z,13.50
2022-12-25T00:07:22.184Z,11.40
2022-12-25T00:07:54.043Z,13.75
2022-12-25T00:08:25.933Z,12.70
2022-12-25T00:08:57.775Z,14.13
2022-12-25T00:09:30.065Z,13.77
2022-12-25T00:10:02.020Z,10.25
2022-12-25T00:10:34.079Z,11.23
2022-12-25T00:11:09.261Z,9.55
2022-12-25T00:11:41.391Z,9.82
2022-12-25T00:12:13.251Z,16.02
2022-12-25T00:12:45.094Z,13.90
2022-12-25T00:13:16.918Z,11.82
2022-12-25T00:13:49.399Z,9.75
2022-12-25T00:14:21.262Z,11.40
2022-12-25T00:14:53.366Z,12.85
2022-12-25T00:15:25.285Z,12.48
2022-12-25T00:15:57.215Z,13.55
2022-12-25T00:16:29.369Z,10.65
2022-12-25T00:17:01.551Z,14.40
2022-12-25T00:17:33.576Z,9.77
2022-12-25T00:18:05.475Z,10.95
2022-12-25T00:18:37.388Z,12.35
2022-12-25T00:19:09.273Z,13.43
2022-12-25T00:19:41.230Z,10.60
2022-12-25T00:20:13.170Z,10.82
2022-12-25T00:20:45.054Z,12.07
2022-12-25T00:21:18.259Z,8.52
2022-12-25T00:21:50.094Z,10.90
2022-12-25T00:22:22.323Z,12.18
2022-12-25T00:22:54.649Z,16.33
2022-12-25T00:23:27.023Z,10.13
2022-12-25T00:23:59.279Z,9.85
2022-12-25T00:24:31.143Z,12.88
2022-12-25T00:25:03.257Z,9.85
2022-12-25T00:25:35.157Z,10.73
2022-12-25T00:26:09.220Z,9.77
2022-12-25T00:26:41.215Z,10.98
2022-12-25T00:27:13.073Z,11.27
2022-12-25T00:27:45.372Z,13.45
2022-12-25T00:28:17.225Z,9.82
2022-12-25T00:28:53.281Z,13.45
2022-12-25T00:29:25.229Z,13.65
2022-12-25T00:29:57.335Z,11.82
2022-12-25T00:30:29.171Z,9.85
2022-12-25T00:31:04.805Z,13.00
2022-12-25T00:31:36.704Z,11.07
2022-12-25T00:32:08.682Z,8.93
2022-12-25T00:32:42.101Z,12.52
2022-12-25T00:33:14.300Z,8.80
2022-12-25T00:33:48.172Z,12.05
2022-12-25T00:34:20.056Z,11.75
2022-12-25T00:34:51.967Z,13.60
2022-12-25T00:35:23.802Z,10.82
2022-12-25T00:36:00.373Z,10.30
2022-12-25T00:36:37.749Z,12.32
2022-12-25T00:37:13.141Z,10.43
2022-12-25T00:37:44.995Z,10.23
2022-12-25T00:38:17.132Z,11.90
2022-12-25T00:38:49.222Z,9.25
2022-12-25T00:39:21.218Z,9.82
2022-12-25T00:39:53.169Z,11.18
2022-12-25T00:40:25.010Z,10.18
2022-12-25T00:40:56.881Z,11.68
2022-12-25T00:41:47.475Z,11.48
2022-12-25T00:42:19.345Z,10.63
2022-12-25T00:42:51.517Z,12.00
2022-12-25T00:43:24.095Z,11.68
2022-12-25T00:43:55.930Z,9.73
2022-12-25T00:44:27.738Z,11.60
2022-12-25T00:45:01.514Z,12.15
2022-12-25T00:45:33.828Z,9.93
2022-12-25T00:46:07.298Z,10.00
2022-12-25T00:46:40.308Z,8.80
2022-12-25T00:47:12.278Z,12.23
2022-12-25T00:47:44.229Z,12.02
2022-12-25T00:48:16.060Z,12.95
2022-12-25T00:48:48.545Z,12.48
2022-12-25T00:49:22.874Z,11.07
2022-12-25T00:49:55.361Z,14.43
2022-12-25T00:50:27.197Z,15.73
2022-12-25T00:51:01.872Z,14.15
2022-12-25T00:51:33.895Z,16.85
2022-12-25T00:52:06.093Z,15.30
2022-12-25T00:52:37.977Z,18.85
2022-12-25T00:53:09.813Z,17.73
2022-12-25T00:53:41.702Z,19.23
2022-12-25T00:54:13.898Z,22.77
2022-12-25T00:54:45.769Z,20.33
2022-12-25T00:55:17.669Z,22.33
2022-12-25T00:55:53.369Z,15.52
2022-12-25T00:56:25.756Z,15.55
2022-12-25T00:56:57.755Z,16.65
2022-12-25T00:57:29.609Z,19.20
2022-12-25T00:58:01.437Z,12.07
2022-12-25T00:58:34.518Z,12.40
2022-12-25T00:59:06.470Z,14.38
2022-12-25T00:59:38.652Z,17.30
2022-12-25T01:00:10.974Z,13.90
2022-12-25T01:00:42.837Z,14.52
2022-12-25T01:01:14.898Z,15.57
2022-12-25T01:01:47.127Z,14.05
2022-12-25T01:02:25.798Z,15.63
2022-12-25T01:02:57.995Z,16.12
2022-12-25T01:03:30.230Z,16.70
2022-12-25T01:04:02.248Z,14.95
2022-12-25T01:04:34.533Z,20.80
2022-12-25T01:05:07.526Z,17.15
2022-12-25T01:05:39.354Z,15.15
2022-12-25T01:06:12.977Z,15.00
2022-12-25T01:06:44.844Z,14.07
2022-12-25T01:07:17.762Z,14.02
2022-12-25T01:07:49.584Z,13.60
2022-12-25T01:08:21.559Z,12.68
2022-12-25T01:09:12.032Z,12.88
2022-12-25T01:10:06.024Z,15.23
2022-12-25T01:10:38.194Z,11.77
2022-12-25T01:11:10.030Z,10.38
2022-12-25T01:11:41.916Z,11.48
2022-12-25T01:12:13.756Z,11.18
2022-12-25T01:12:45.589Z,11.93
2022-12-25T01:13:17.395Z,12.70
2022-12-25T01:13:49.236Z,14.10
2022-12-25T01:14:21.086Z,14.60
2022-12-25T01:14:52.979Z,14.30
2022-12-25T01:15:24.924Z,13.45
2022-12-25T01:15:57.546Z,14.60
2022-12-25T01:16:29.993Z,11.48
2022-12-25T01:17:01.833Z,12.98
2022-12-25T01:17:33.912Z,12.63
2022-12-25T01:18:07.915Z,12.20
2022-12-25T01:18:40.555Z,11.60
2022-12-25T01:19:12.456Z,13.82
2022-12-25T01:19:44.335Z,10.13
2022-12-25T01:20:17.869Z,11.32
2022-12-25T01:20:49.879Z,12.20
2022-12-25T01:21:22.579Z,12.88
2022-12-25T01:21:54.445Z,13.30
2022-12-25T01:22:26.444Z,11.60
2022-12-25T01:22:58.286Z,11.45
2022-12-25T01:23:30.104Z,13.95
2022-12-25T01:24:02.270Z,13.70
2022-12-25T01:24:34.109Z,11.05
2022-12-25T01:25:06.676Z,8.75
2022-12-25T01:25:38.550Z,8.85
2022-12-25T01:26:12.120Z,10.00
2022-12-25T01:26:44.297Z,8.98
2022-12-25T01:27:16.978Z,11.45
2022-12-25T01:27:48.899Z,15.43
2022-12-25T01:28:20.748Z,8.00
2022-12-25T01:28:52.699Z,9.85
2022-12-25T01:29:24.568Z,8.48
2022-12-25T01:29:56.393Z,11.35
2022-12-25T01:30:28.401Z,12.07
2022-12-25T01:31:00.253Z,10.27
2022-12-25T01:31:32.483Z,10.77
2022-12-25T01:32:05.871Z,10.57
2022-12-25T01:32:37.846Z,10.02
2022-12-25T01:33:10.092Z,14.00
2022-12-25T01:33:43.435Z,9.10
2022-12-25T01:34:15.327Z,11.85
2022-12-25T01:34:52.085Z,10.93
2022-12-25T01:35:27.741Z,10.23
2022-12-25T01:35:59.718Z,12.00
2022-12-25T01:36:31.577Z,10.95
2022-12-25T01:37:03.429Z,9.73
2022-12-25T01:37:35.673Z,8.98
2022-12-25T01:38:07.535Z,9.55
2022-12-25T01:38:39.397Z,11.77
2022-12-25T01:39:11.219Z,11.18
2022-12-25T01:39:43.090Z,13.48
2022-12-25T01:40:14.974Z,9.60
2022-12-25T01:40:46.943Z,8.15
2022-12-25T01:41:20.832Z,10.20
2022-12-25T01:41:52.814Z,10.52
2022-12-25T01:42:24.758Z,11.93
2022-12-25T01:42:56.970Z,11.25
2022-12-25T01:43:32.786Z,9.75
2022-12-25T01:44:13.650Z,14.07
2022-12-25T01:44:45.426Z,10.25
2022-12-25T01:45:37.935Z,10.15
2022-12-25T01:46:09.868Z,11.00
2022-12-25T01:46:42.818Z,11.50
2022-12-25T01:47:17.138Z,8.90
2022-12-25T01:47:48.961Z,9.60
2022-12-25T01:48:25.005Z,11.85
2022-12-25T01:49:02.145Z,10.57
2022-12-25T01:49:37.959Z,10.02
2022-12-25T01:50:09.939Z,15.68
2022-12-25T01:50:46.272Z,12.27
2022-12-25T01:51:51.233Z,16.77
2022-12-25T01:52:25.325Z,11.57
2022-12-25T01:52:58.125Z,11.07
2022-12-25T01:53:30.318Z,13.10
2022-12-25T01:54:07.011Z,12.85
2022-12-25T01:54:50.584Z,12.95
2022-12-25T01:55:23.376Z,13.00
2022-12-25T01:56:01.938Z,12.57
2022-12-25T01:56:37.207Z,13.52
2022-12-25T01:57:17.299Z,12.45
2022-12-25T01:57:49.629Z,13.13
2022-12-25T01:58:21.560Z,11.12
2022-12-25T01:58:55.946Z,13.65
2022-12-25T01:59:30.315Z,12.32
2022-12-25T02:00:02.710Z,13.75
2022-12-25T02:00:36.672Z,9.77
2022-12-25T02:01:09.060Z,12.18
2022-12-25T02:01:41.128Z,9.38
2022-12-25T02:02:13.296Z,17.52
2022-12-25T02:02:45.756Z,9.27
2022-12-25T02:03:18.464Z,12.73
2022-12-25T02:03:51.581Z,9.15
2022-12-25T02:04:39.176Z,10.73
2022-12-25T02:05:22.215Z,14.38
2022-12-25T02:05:54.872Z,9.60
2022-12-25T02:06:30.643Z,9.68
2022-12-25T02:07:02.482Z,9.70
2022-12-25T02:07:37.311Z,10.30
2022-12-25T02:08:14.449Z,9.13
2022-12-25T02:08:46.376Z,10.23
2022-12-25T02:09:19.145Z,10.75
2022-12-25T02:09:51.923Z,14.55
2022-12-25T02:10:23.982Z,11.23
2022-12-25T02:10:55.825Z,12.85
2022-12-25T02:11:46.585Z,10.80
2022-12-25T02:12:22.273Z,12.00
2022-12-25T02:12:54.146Z,11.32
2022-12-25T02:13:26.625Z,11.15
2022-12-25T02:13:59.678Z,11.88
2022-12-25T02:14:35.587Z,12.82
2022-12-25T02:15:14.221Z,12.15
2022-12-25T02:15:48.720Z,11.70
2022-12-25T02:16:26.314Z,14.85
2022-12-25T02:17:24.878Z,13.60
2022-12-25T02:18:12.826Z,10.57
2022-12-25T02:18:51.890Z,10.80
2022-12-25T02:19:33.271Z,9.88
2022-12-25T02:20:40.278Z,11.07
2022-12-25T02:21:27.032Z,11.18
2022-12-25T02:22:35.087Z,10.48
2022-12-25T02:23:28.212Z,11.23
2022-12-25T02:24:27.359Z,12.45
2022-12-25T02:25:11.046Z,12.15
2022-12-25T02:25:43.538Z,9.65
2022-12-25T02:26:58.356Z,11.93
2022-12-25T02:27:56.191Z,10.05
2022-12-25T02:28:30.367Z,12.18
2022-12-25T02:29:17.274Z,10.80
2022-12-25T02:30:05.412Z,10.63
2022-12-25T02:30:44.205Z,11.93
2022-12-25T02:31:34.088Z,10.85
2022-12-25T02:32:15.916Z,12.82
2022-12-25T02:33:26.186Z,8.30
2022-12-25T02:34:06.924Z,10.68
2022-12-25T02:35:31.351Z,13.32
2022-12-25T02:36:10.477Z,11.50
2022-12-25T02:36:51.107Z,11.90
2022-12-25T02:37:29.422Z,8.50
2022-12-25T02:38:08.406Z,9.48
2022-12-25T02:39:04.846Z,18.15
2022-12-25T02:39:58.004Z,11.85
2022-12-25T02:40:38.509Z,9.32
2022-12-25T02:41:16.208Z,9.27
2022-12-25T02:41:53.924Z,10.68
2022-12-25T02:43:02.592Z,8.48
2022-12-25T02:43:59.764Z,11.63
2022-12-25T02:44:52.701Z,8.88
2022-12-25T02:45:52.772Z,11.05
2022-12-25T02:46:44.931Z,9.18
2022-12-25T02:47:36.315Z,11.98
2022-12-25T02:48:28.911Z,13.80
2022-12-25T02:49:23.995Z,14.18
2022-12-25T02:50:15.859Z,9.85
2022-12-25T02:51:07.130Z,10.95
2022-12-25T02:52:02.217Z,16.50
2022-12-25T02:53:12.982Z,9.80
2022-12-25T02:54:04.988Z,9.55
2022-12-25T02:54:59.240Z,8.73
2022-12-25T02:55:55.142Z,10.50
2022-12-25T02:56:48.243Z,9.77
2022-12-25T02:57:43.488Z,9.60
2022-12-25T02:58:39.690Z,8.02
2022-12-25T02:59:32.457Z,8.05
2022-12-25T03:00:25.019Z,8.20
2022-12-25T03:01:24.309Z,8.80
2022-12-25T03:02:15.299Z,7.15
2022-12-25T03:03:08.504Z,8.70
2022-12-25T03:04:01.254Z,9.60
2022-12-25T03:04:52.578Z,9.82
2022-12-25T03:05:45.715Z,8.23
2022-12-25T03:06:39.222Z,11.60
2022-12-25T03:07:16.265Z,12.00
2022-12-25T03:07:48.497Z,12.02
2022-12-25T03:08:29.775Z,10.85
2022-12-25T03:09:23.527Z,12.10
2022-12-25T03:10:20.265Z,9.50
2022-12-25T03:11:20.548Z,8.13
2022-12-25T03:12:02.424Z,10.43
2022-12-25T03:12:49.190Z,8.52
2022-12-25T03:13:27.623Z,9.82
2022-12-25T03:14:21.700Z,8.63
2022-12-25T03:15:11.998Z,9.25
2022-12-25T03:16:03.393Z,8.82
2022-12-25T03:16:54.002Z,7.65
2022-12-25T03:17:26.725Z,7.97
2022-12-25T03:18:03.378Z,8.95
2022-12-25T03:18:35.957Z,7.78
2022-12-25T03:19:27.112Z,9.77
2022-12-25T03:20:18.452Z,8.57
2022-12-25T03:21:10.386Z,7.40
2022-12-25T03:22:01.265Z,10.35
2022-12-25T03:22:51.618Z,8.82
2022-12-25T03:23:47.694Z,7.45
2022-12-25T03:24:38.384Z,10.38
2022-12-25T03:25:29.165Z,6.50
2022-12-25T03:26:19.594Z,11.23
2022-12-25T03:26:58.031Z,9.00
2022-12-25T03:27:33.542Z,7.50
2022-12-25T03:28:06.518Z,10.65
2022-12-25T03:28:38.351Z,6.85
2022-12-25T03:29:11.218Z,7.87
2022-12-25T03:30:02.025Z,9.95
2022-12-25T03:31:12.509Z,10.07
2022-12-25T03:31:58.508Z,7.15
2022-12-25T03:32:51.538Z,7.18
2022-12-25T03:33:46.100Z,6.60
2022-12-25T03:34:55.271Z,7.68
2022-12-25T03:35:34.054Z,7.30
2022-12-25T03:36:15.869Z,7.72
2022-12-25T03:37:00.756Z,6.72
2022-12-25T03:38:10.146Z,8.80
2022-12-25T03:38:50.860Z,8.85
2022-12-25T03:39:57.586Z,8.43
2022-12-25T03:40:48.080Z,7.93
2022-12-25T03:41:59.715Z,10.90
2022-12-25T03:42:58.156Z,8.23
2022-12-25T03:44:07.915Z,6.00
2022-12-25T03:45:22.356Z,8.32
2022-12-25T03:46:15.801Z,9.32
2022-12-25T03:47:13.033Z,10.18
2022-12-25T03:48:08.058Z,9.60
2022-12-25T03:49:03.117Z,8.05
2022-12-25T03:50:05.649Z,9.57
2022-12-25T03:51:11.506Z,10.10
2022-12-25T03:52:03.875Z,8.15
2022-12-25T03:52:56.853Z,6.78
2022-12-25T03:53:52.309Z,7.12
2022-12-25T03:54:47.789Z,7.20
2022-12-25T03:55:39.185Z,6.70
2022-12-25T03:56:31.115Z,6.50
2022-12-25T03:57:21.484Z,6.72
2022-12-25T03:58:12.026Z,7.78
2022-12-25T03:59:11.283Z,9.02
2022-12-25T04:00:02.285Z,7.03
2022-12-25T04:01:00.007Z,9.07
2022-12-25T04:01:50.951Z,5.45
2022-12-25T04:02:41.756Z,5.68
2022-12-25T04:03:32.733Z,11.73
2022-12-25T04:04:23.284Z,8.32
2022-12-25T04:05:13.966Z,6.15
2022-12-25T04:06:04.254Z,7.90
2022-12-25T04:06:55.654Z,7.05
2022-12-25T04:07:46.127Z,9.95
2022-12-25T04:08:36.593Z,8.38
2022-12-25T04:09:26.969Z,8.93
2022-12-25T04:10:17.412Z,7.32
2022-12-25T04:11:07.859Z,9.18
2022-12-25T04:12:02.526Z,11.30
2022-12-25T04:12:53.304Z,8.45
2022-12-25T04:13:43.720Z,9.93
2022-12-25T04:14:33.987Z,10.93
2022-12-25T04:15:24.983Z,6.50
2022-12-25T04:16:15.455Z,9.93
2022-12-25T04:17:06.434Z,8.85
2022-12-25T04:17:56.906Z,11.30
2022-12-25T04:18:47.368Z,7.40
2022-12-25T04:19:38.008Z,7.45
2022-12-25T04:20:28.780Z,7.30
2022-12-25T04:21:19.364Z,6.68
2022-12-25T04:22:10.206Z,9.02
2022-12-25T04:23:00.537Z,8.82
2022-12-25T04:23:51.018Z,7.45
2022-12-25T04:24:41.453Z,6.68
2022-12-25T04:25:32.065Z,6.90
2022-12-25T04:26:22.365Z,8.18
2022-12-25T04:27:13.456Z,8.48
2022-12-25T04:28:03.916Z,9.15
2022-12-25T04:28:54.565Z,7.85
2022-12-25T04:29:44.897Z,6.55
2022-12-25T04:30:35.254Z,5.68
2022-12-25T04:31:25.902Z,7.18
2022-12-25T04:32:16.913Z,6.57
2022-12-25T04:33:07.394Z,6.82
2022-12-25T04:33:57.715Z,9.18
2022-12-25T04:34:48.376Z,8.05
2022-12-25T04:35:55.589Z,7.95
2022-12-25T04:36:27.423Z,7.87
2022-12-25T04:36:59.549Z,8.10
2022-12-25T04:37:31.363Z,7.60
2022-12-25T04:38:03.208Z,7.45
2022-12-25T04:38:36.553Z,8.50
2022-12-25T04:39:09.693Z,10.90
2022-12-25T04:39:41.528Z,9.05
2022-12-25T04:40:13.506Z,6.32
2022-12-25T04:40:45.354Z,6.50
2022-12-25T04:41:17.211Z,8.65
2022-12-25T04:41:49.062Z,9.27
2022-12-25T04:42:21.271Z,10.05
2022-12-25T04:42:53.520Z,9.43
2022-12-25T04:43:25.621Z,7.55
2022-12-25T04:43:57.452Z,10.63
2022-12-25T04:44:29.267Z,8.00
2022-12-25T04:45:01.123Z,8.55
2022-12-25T04:45:32.972Z,7.90
2022-12-25T04:46:06.054Z,8.52
2022-12-25T04:46:37.960Z,8.13
2022-12-25T04:47:11.730Z,10.23
2022-12-25T04:47:44.257Z,9.90
2022-12-25T04:48:16.138Z,6.30
2022-12-25T04:48:47.998Z,7.82
2022-12-25T04:49:19.962Z,8.02
2022-12-25T04:49:51.809Z,9.02
2022-12-25T04:50:23.665Z,7.53
2022-12-25T04:50:56.327Z,7.05
2022-12-25T04:51:28.176Z,7.12
2022-12-25T04:51:59.987Z,8.20
2022-12-25T04:52:37.018Z,11.68
2022-12-25T04:53:09.187Z,6.97
2022-12-25T04:53:41.336Z,9.18
2022-12-25T04:54:13.199Z,9.45
2022-12-25T04:54:45.085Z,8.70
2022-12-25T04:55:16.961Z,6.25
2022-12-25T04:55:49.153Z,7.47
2022-12-25T04:56:21.717Z,7.65
2022-12-25T04:56:53.629Z,8.65
2022-12-25T04:57:25.453Z,7.00
2022-12-25T04:57:57.288Z,10.32
2022-12-25T04:58:31.076Z,8.40
2022-12-25T04:59:02.890Z,8.90
2022-12-25T04:59:34.731Z,7.40
2022-12-25T05:00:07.269Z,8.52
2022-12-25T05:00:39.449Z,10.57
2022-12-25T05:01:12.336Z,12.50
2022-12-25T05:01:44.282Z,10.23
2022-12-25T05:02:16.458Z,8.07
2022-12-25T05:02:48.566Z,9.77
2022-12-25T05:03:20.482Z,11.20
2022-12-25T05:03:52.817Z,6.60
2022-12-25T05:04:24.812Z,8.55
2022-12-25T05:04:57.466Z,9.10
2022-12-25T05:05:29.418Z,12.00
2022-12-25T05:06:02.319Z,7.93
2022-12-25T05:06:34.152Z,8.35
2022-12-25T05:07:05.999Z,8.13
2022-12-25T05:07:37.911Z,8.75
2022-12-25T05:08:09.833Z,9.98
2022-12-25T05:08:41.947Z,10.38
2022-12-25T05:09:14.081Z,10.93
2022-12-25T05:09:45.917Z,11.68
2022-12-25T05:10:17.957Z,9.45
2022-12-25T05:10:50.127Z,8.20
2022-12-25T05:11:21.994Z,9.55
2022-12-25T05:11:53.830Z,6.82
2022-12-25T05:12:25.674Z,9.75
2022-12-25T05:12:57.578Z,8.10
2022-12-25T05:13:29.466Z,10.93
2022-12-25T05:14:01.434Z,9.18
2022-12-25T05:14:33.783Z,7.62
2022-12-25T05:15:06.002Z,6.95
2022-12-25T05:15:42.225Z,6.87
2022-12-25T05:16:17.130Z,7.15
2022-12-25T05:16:49.067Z,5.95
2022-12-25T05:17:20.947Z,8.38
2022-12-25T05:17:52.775Z,6.70
2022-12-25T05:18:24.873Z,6.07
2022-12-25T05:18:57.420Z,8.48
2022-12-25T05:19:29.328Z,7.00
2022-12-25T05:20:02.184Z,6.05
2022-12-25T05:20:39.680Z,6.18
2022-12-25T05:21:12.461Z,5.68
2022-12-25T05:21:44.417Z,6.95
2022-12-25T05:22:16.237Z,7.22
2022-12-25T05:22:48.089Z,7.97
2022-12-25T05:23:20.185Z,7.12
2022-12-25T05:23:54.903Z,6.97
2022-12-25T05:24:27.841Z,6.45
2022-12-25T05:24:59.699Z,10.40
2022-12-25T05:25:31.939Z,6.25
2022-12-25T05:26:07.822Z,9.55
2022-12-25T05:26:39.690Z,10.98
2022-12-25T05:27:11.567Z,9.15
2022-12-25T05:27:46.524Z,8.68
2022-12-25T05:28:22.108Z,12.75
2022-12-25T05:28:54.916Z,11.85
2022-12-25T05:29:26.894Z,12.95
2022-12-25T05:29:58.762Z,8.50
2022-12-25T05:30:30.601Z,9.10
2022-12-25T05:31:03.154Z,8.80
2022-12-25T05:31:35.119Z,7.40
2022-12-25T05:32:07.045Z,10.20
2022-12-25T05:32:38.948Z,9.77
2022-12-25T05:33:10.867Z,11.12
2022-12-25T05:33:42.783Z,10.18
2022-12-25T05:34:14.631Z,6.95
2022-12-25T05:34:46.853Z,7.90
2022-12-25T05:35:18.697Z,9.52
2022-12-25T05:35:50.962Z,12.37
2022-12-25T05:36:23.126Z,7.78
2022-12-25T05:36:56.471Z,8.10
2022-12-25T05:37:28.394Z,10.18
2022-12-25T05:38:00.250Z,11.23
2022-12-25T05:38:32.596Z,8.93
2022-12-25T05:39:04.473Z,14.57
2022-12-25T05:39:36.475Z,9.90
2022-12-25T05:40:09.058Z,11.88
2022-12-25T05:40:41.079Z,10.23
2022-12-25T05:41:12.980Z,9.63
2022-12-25T05:41:45.242Z,14.00
2022-12-25T05:42:17.145Z,12.73
2022-12-25T05:42:49.070Z,10.93
2022-12-25T05:43:20.949Z,12.55
2022-12-25T05:43:52.791Z,9.57
2022-12-25T05:44:24.570Z,8.38
2022-12-25T05:44:56.405Z,10.32
2022-12-25T05:45:28.261Z,9.57
2022-12-25T05:46:06.181Z,12.27
2022-12-25T05:46:38.115Z,11.07
2022-12-25T05:47:10.330Z,12.80
2022-12-25T05:47:42.195Z,11.40
2022-12-25T05:48:14.042Z,10.75
2022-12-25T05:48:45.934Z,9.60
2022-12-25T05:49:17.810Z,29.15
2022-12-25T05:49:49.620Z,10.38
2022-12-25T05:50:21.459Z,8.23
2022-12-25T05:50:53.257Z,11.27
2022-12-25T05:51:26.153Z,11.60
2022-12-25T05:51:58.027Z,12.20
2022-12-25T05:52:33.859Z,9.63
2022-12-25T05:53:08.580Z,8.13
2022-12-25T05:53:42.518Z,8.00
2022-12-25T05:54:14.373Z,10.38
2022-12-25T05:54:46.530Z,9.27
2022-12-25T05:55:18.368Z,10.20
2022-12-25T05:55:50.342Z,8.48
2022-12-25T05:56:22.249Z,9.13
2022-12-25T05:56:54.109Z,9.40
2022-12-25T05:57:28.639Z,7.55
2022-12-25T05:58:01.049Z,9.23
2022-12-25T05:58:34.196Z,6.43
2022-12-25T05:59:06.117Z,7.57
2022-12-25T05:59:37.990Z,15.48
2022-12-25T06:00:10.829Z,7.65
2022-12-25T06:00:44.579Z,8.57
2022-12-25T06:01:23.776Z,11.23
2022-12-25T06:01:55.668Z,9.20
2022-12-25T06:02:27.770Z,10.60
2022-12-25T06:03:00.196Z,9.75
2022-12-25T06:03:32.200Z,9.23
2022-12-25T06:04:10.190Z,14.48
2022-12-25T06:04:44.187Z,10.70
2022-12-25T06:05:16.531Z,9.93
2022-12-25T06:05:50.902Z,11.55
2022-12-25T06:06:29.663Z,13.62
2022-12-25T06:07:01.787Z,14.55
2022-12-25T06:07:34.495Z,15.23
2022-12-25T06:08:06.501Z,14.98
2022-12-25T06:08:38.688Z,20.98
2022-12-25T06:09:16.956Z,20.67
2022-12-25T06:09:49.280Z,17.08
2022-12-25T06:10:21.906Z,14.85
2022-12-25T06:10:54.250Z,16.42
2022-12-25T06:11:28.213Z,18.62
2022-12-25T06:12:00.464Z,19.10
2022-12-25T06:12:35.135Z,21.10
2022-12-25T06:13:07.330Z,19.35
2022-12-25T06:13:39.722Z,19.92
2022-12-25T06:14:15.613Z,19.00
2022-12-25T06:14:52.643Z,17.48
2022-12-25T06:15:24.999Z,21.02
2022-12-25T06:15:57.290Z,18.67
2022-12-25T06:16:38.446Z,18.48
2022-12-25T06:17:10.525Z,20.15
2022-12-25T06:17:42.433Z,15.40
2022-12-25T06:18:14.383Z,18.27
2022-12-25T06:18:50.103Z,19.75
2022-12-25T06:19:22.579Z,18.90
2022-12-25T06:19:54.891Z,16.17
2022-12-25T06:20:26.840Z,22.17
2022-12-25T06:21:05.794Z,14.95
2022-12-25T06:22:03.404Z,17.70
2022-12-25T06:22:37.164Z,13.25
2022-12-25T06:23:33.488Z,17.75
2022-12-25T06:24:06.172Z,18.35
2022-12-25T06:24:42.132Z,14.70
2022-12-25T06:25:20.566Z,21.60
2022-12-25T06:25:55.664Z,18.92
2022-12-25T06:26:36.661Z,18.58
2022-12-25T06:27:14.581Z,18.85
2022-12-25T06:27:52.363Z,18.15
2022-12-25T06:28:24.847Z,19.58
2022-12-25T06:29:02.400Z,18.02
2022-12-25T06:29:34.794Z,19.75
2022-12-25T06:30:10.270Z,19.35
2022-12-25T06:30:44.821Z,21.30
2022-12-25T06:31:22.959Z,20.95
2022-12-25T06:31:59.135Z,22.17
2022-12-25T06:32:32.405Z,18.98
2022-12-25T06:33:04.736Z,22.83
2022-12-25T06:33:39.542Z,27.33
2022-12-25T06:34:16.794Z,17.42
2022-12-25T06:34:49.231Z,18.80
2022-12-25T06:35:24.025Z,24.77
2022-12-25T06:36:06.855Z,24.17
2022-12-25T06:36:41.816Z,23.62
2022-12-25T06:37:25.259Z,23.95
2022-12-25T06:37:57.970Z,23.33
2022-12-25T06:38:29.800Z,21.67
2022-12-25T06:39:02.118Z,25.42
2022-12-25T06:39:33.988Z,26.95
2022-12-25T06:40:06.593Z,27.08
2022-12-25T06:40:38.470Z,25.88
2022-12-25T06:41:15.083Z,24.95
2022-12-25T06:41:47.768Z,22.92
2022-12-25T06:42:19.649Z,22.55
2022-12-25T06:42:52.259Z,23.60
2022-12-25T06:43:24.397Z,23.98
2022-12-25T06:43:58.415Z,24.17
2022-12-25T06:44:30.358Z,23.50
2022-12-25T06:45:02.356Z,23.23
2022-12-25T06:45:36.167Z,24.30
2022-12-25T06:46:11.756Z,23.55
2022-12-25T06:46:43.939Z,21.90
2022-12-25T06:47:15.819Z,27.83
2022-12-25T06:47:47.676Z,20.02
2022-12-25T06:48:19.572Z,17.45
2022-12-25T06:48:52.312Z,18.98
2022-12-25T06:49:27.327Z,31.95
2022-12-25T06:49:59.285Z,17.85
2022-12-25T06:50:31.137Z,18.00
2022-12-25T06:51:04.311Z,19.05
2022-12-25T06:51:36.254Z,16.20
2022-12-25T06:52:08.108Z,17.77
2022-12-25T06:52:39.949Z,15.57
2022-12-25T06:53:11.888Z,21.05
2022-12-25T06:53:43.906Z,20.62
2022-12-25T06:54:16.080Z,20.85
2022-12-25T06:54:47.943Z,25.15
2022-12-25T06:55:19.802Z,19.12
2022-12-25T06:55:51.682Z,21.35
2022-12-25T06:56:26.921Z,19.77
2022-12-25T06:56:58.786Z,18.83
2022-12-25T06:57:30.638Z,20.52
2022-12-25T06:58:02.499Z,17.48
2022-12-25T06:58:34.328Z,18.83
2022-12-25T06:59:09.742Z,20.80
2022-12-25T06:59:41.863Z,16.65
2022-12-25T07:00:14.524Z,21.60
2022-12-25T07:00:46.640Z,18.37
2022-12-25T07:01:30.669Z,19.77
2022-12-25T07:02:03.157Z,16.65
2022-12-25T07:02:35.497Z,17.42
2022-12-25T07:03:07.619Z,17.67
2022-12-25T07:03:39.537Z,20.95
2022-12-25T07:04:18.798Z,15.73
2022-12-25T07:04:52.092Z,16.85
2022-12-25T07:05:23.927Z,17.80
2022-12-25T07:05:55.788Z,21.02
2022-12-25T07:06:27.902Z,20.73
2022-12-25T07:07:06.174Z,15.23
2022-12-25T07:07:40.379Z,16.20
2022-12-25T07:08:12.254Z,18.17
2022-12-25T07:08:44.257Z,14.52
2022-12-25T07:09:16.255Z,17.00
2022-12-25T07:09:48.109Z,15.18
2022-12-25T07:10:20.238Z,18.87
2022-12-25T07:10:52.063Z,31.40
2022-12-25T07:11:23.991Z,18.48
2022-12-25T07:12:15.189Z,20.02
2022-12-25T07:13:18.713Z,28.00
2022-12-25T07:13:50.575Z,18.60
2022-12-25T07:14:24.611Z,21.00
2022-12-25T07:14:56.895Z,23.25
2022-12-25T07:15:29.037Z,26.00
2022-12-25T07:16:03.484Z,26.48
2022-12-25T07:16:35.495Z,28.38
2022-12-25T07:17:07.518Z,19.05
2022-12-25T07:17:39.401Z,22.80
2022-12-25T07:18:11.237Z,18.95
2022-12-25T07:18:43.148Z,26.67
2022-12-25T07:19:15.818Z,22.85
2022-12-25T07:19:47.866Z,21.95
2022-12-25T07:20:19.944Z,19.20
2022-12-25T07:20:52.217Z,21.33
2022-12-25T07:21:24.094Z,18.87
2022-12-25T07:21:56.316Z,19.12
2022-12-25T07:22:30.106Z,17.70
2022-12-25T07:23:01.945Z,16.73
2022-12-25T07:23:34.139Z,19.60
2022-12-25T07:24:06.452Z,13.77
2022-12-25T07:24:38.322Z,15.80
2022-12-25T07:25:10.215Z,14.95
2022-12-25T07:25:42.171Z,14.65
2022-12-25T07:26:15.475Z,13.82
2022-12-25T07:26:47.928Z,14.85
2022-12-25T07:27:19.837Z,16.10
2022-12-25T07:27:51.705Z,13.77
2022-12-25T07:28:23.632Z,12.02
2022-12-25T07:28:55.915Z,16.00
2022-12-25T07:29:27.746Z,17.45
2022-12-25T07:29:59.609Z,16.83
2022-12-25T07:30:31.447Z,12.07
2022-12-25T07:31:09.608Z,14.18
2022-12-25T07:31:41.813Z,15.65
2022-12-25T07:32:13.877Z,16.27
2022-12-25T07:32:50.094Z,14.90
2022-12-25T07:33:22.247Z,15.05
2022-12-25T07:33:55.001Z,14.68
2022-12-25T07:34:26.859Z,12.88
2022-12-25T07:34:58.971Z,15.57
2022-12-25T07:35:31.097Z,16.52
2022-12-25T07:36:05.664Z,14.82
2022-12-25T07:36:37.655Z,14.90
2022-12-25T07:37:09.915Z,16.33
2022-12-25T07:37:41.953Z,18.25
2022-12-25T07:38:13.782Z,14.87
2022-12-25T07:38:49.003Z,17.12
2022-12-25T07:39:20.869Z,17.80
2022-12-25T07:39:52.731Z,14.80
2022-12-25T07:40:24.565Z,14.35
2022-12-25T07:40:56.402Z,12.93
2022-12-25T07:41:28.243Z,13.73
2022-12-25T07:42:00.897Z,15.93
2022-12-25T07:42:33.195Z,15.73
2022-12-25T07:43:05.044Z,15.95
2022-12-25T07:43:37.242Z,15.25
2022-12-25T07:44:09.120Z,12.07
2022-12-25T07:44:40.972Z,11.88
2022-12-25T07:45:12.885Z,12.25
2022-12-25T07:45:44.850Z,13.07
2022-12-25T07:46:16.867Z,14.23
2022-12-25T07:46:48.779Z,16.45
2022-12-25T07:47:20.681Z,11.15
2022-12-25T07:47:55.054Z,14.30
2022-12-25T07:48:28.620Z,14.07
2022-12-25T07:49:00.778Z,14.63
2022-12-25T07:49:32.624Z,15.02
2022-12-25T07:50:04.998Z,14.13
2022-12-25T07:50:37.383Z,14.75
2022-12-25T07:51:12.427Z,16.95
2022-12-25T07:51:44.342Z,17.92
2022-12-25T07:52:16.195Z,14.02
2022-12-25T07:52:48.051Z,14.60
2022-12-25T07:53:20.193Z,12.85
2022-12-25T07:53:52.687Z,12.73
2022-12-25T07:54:24.707Z,19.48
2022-12-25T07:54:56.576Z,13.18
2022-12-25T07:55:28.464Z,11.88
2022-12-25T07:56:06.365Z,17.12
2022-12-25T07:56:38.241Z,17.40
2022-12-25T07:57:10.098Z,13.23
2022-12-25T07:57:41.977Z,13.18
2022-12-25T07:58:16.067Z,13.82
2022-12-25T07:58:52.162Z,15.93
2022-12-25T07:59:24.032Z,13.95
2022-12-25T07:59:56.249Z,11.88
2022-12-25T08:00:32.806Z,11.52
2022-12-25T08:01:12.368Z,8.50
2022-12-25T08:01:44.506Z,11.88
2022-12-25T08:02:16.706Z,9.23
2022-12-25T08:02:51.756Z,12.32